createdAt,value
2018-09-11T00:01:42.295Z,60.10
2018-09-11T00:04:11.565Z,60.00
2018-09-11T00:06:40.760Z,60.10
2018-09-11T00:09:12.145Z,60.10
2018-09-11T00:11:41.812Z,60.20
2018-09-11T00:14:10.877Z,60.10
2018-09-11T00:16:40.134Z,60.30
2018-09-11T00:19:09.227Z,61.10
2018-09-11T00:21:38.339Z,60.40
2018-09-11T00:24:07.627Z,60.40
2018-09-11T00:26:36.789Z,60.50
2018-09-11T00:29:06.090Z,60.60
2018-09-11T00:31:35.821Z,61.00
2018-09-11T00:34:05.097Z,61.10
2018-09-11T00:36:34.430Z,61.10
2018-09-11T00:39:03.883Z,61.40
2018-09-11T00:41:33.221Z,61.60
2018-09-11T00:44:02.451Z,61.80
2018-09-11T00:46:31.762Z,64.00
2018-09-11T00:49:01.646Z,62.70
2018-09-11T00:51:31.218Z,62.50
2018-09-11T00:54:00.357Z,62.60
2018-09-11T00:56:29.705Z,62.50
2018-09-11T00:58:58.927Z,62.40
2018-09-11T01:01:28.177Z,62.50
2018-09-11T01:03:57.506Z,62.50
2018-09-11T01:06:26.711Z,62.50
2018-09-11T01:08:56.094Z,62.60
2018-09-11T01:11:25.202Z,62.50
2018-09-11T01:13:54.294Z,62.50
2018-09-11T01:16:23.512Z,63.30
2018-09-11T01:18:52.820Z,62.70
2018-09-11T01:21:21.958Z,62.80
2018-09-11T01:23:51.206Z,62.80
2018-09-11T01:26:20.482Z,62.80
2018-09-11T01:28:49.675Z,62.80
2018-09-11T01:31:18.862Z,63.00
2018-09-11T01:33:48.028Z,63.10
2018-09-11T01:36:17.162Z,63.20
2018-09-11T01:38:46.560Z,63.30
2018-09-11T01:41:15.635Z,63.40
2018-09-11T01:43:45.366Z,63.50
2018-09-11T01:46:14.691Z,63.70
2018-09-11T01:48:43.949Z,63.70
2018-09-11T01:51:13.386Z,63.70
2018-09-11T01:53:42.586Z,63.80
2018-09-11T01:56:11.938Z,64.00
2018-09-11T01:58:41.059Z,64.00
2018-09-11T02:01:10.287Z,64.20
2018-09-11T02:03:39.426Z,65.00
2018-09-11T02:06:08.609Z,64.40
2018-09-11T02:08:37.824Z,64.60
2018-09-11T02:11:07.170Z,64.80
2018-09-11T02:13:36.334Z,64.90
2018-09-11T02:16:05.509Z,65.10
2018-09-11T02:18:34.629Z,65.20
2018-09-11T02:21:03.837Z,65.50
2018-09-11T02:23:33.087Z,65.50
2018-09-11T02:26:02.187Z,65.70
2018-09-11T02:28:31.547Z,66.00
2018-09-11T02:31:00.695Z,66.20
2018-09-11T02:33:29.831Z,66.30
2018-09-11T02:35:59.039Z,66.40
2018-09-11T02:38:28.022Z,66.60
2018-09-11T02:40:57.151Z,66.80
2018-09-11T02:43:26.521Z,66.80
2018-09-11T02:45:55.790Z,67.00
2018-09-11T02:48:24.934Z,67.00
2018-09-11T02:50:54.205Z,67.00
2018-09-11T02:53:23.317Z,67.20
2018-09-11T02:55:52.648Z,67.20
2018-09-11T02:58:21.801Z,67.40
2018-09-11T03:00:51.014Z,67.80
2018-09-11T03:03:20.197Z,67.90
2018-09-11T03:05:49.243Z,68.30
2018-09-11T03:08:18.338Z,68.20
2018-09-11T03:10:47.477Z,68.30
2018-09-11T03:13:16.779Z,68.20
2018-09-11T03:15:46.653Z,68.20
2018-09-11T03:18:15.687Z,68.40
2018-09-11T03:20:44.705Z,68.50
2018-09-11T03:23:13.961Z,68.70
2018-09-11T03:25:43.099Z,68.90
2018-09-11T03:28:12.286Z,68.90
2018-09-11T03:30:41.296Z,69.10
2018-09-11T03:33:10.506Z,69.00
2018-09-11T03:35:39.604Z,69.30
2018-09-11T03:38:08.902Z,69.40
2018-09-11T03:40:38.204Z,69.40
2018-09-11T03:43:07.432Z,69.30
2018-09-11T03:45:36.481Z,69.30
2018-09-11T03:48:05.641Z,69.50
2018-09-11T03:50:34.734Z,70.00
2018-09-11T03:53:03.778Z,69.40
2018-09-11T03:55:33.056Z,69.60
2018-09-11T03:58:02.413Z,69.60
2018-09-11T04:00:31.558Z,69.70
2018-09-11T04:03:00.527Z,70.00
2018-09-11T04:05:29.719Z,70.20
2018-09-11T04:07:59.013Z,70.20
2018-09-11T04:10:28.487Z,70.20
2018-09-11T04:12:57.613Z,70.40
2018-09-11T04:15:26.855Z,70.20
2018-09-11T04:17:56.029Z,70.10
2018-09-11T04:20:25.241Z,70.40
2018-09-11T04:22:54.447Z,70.10
2018-09-11T04:25:23.669Z,70.20
2018-09-11T04:27:53.025Z,70.10
2018-09-11T04:30:22.296Z,70.70
2018-09-11T04:32:51.417Z,70.00
2018-09-11T04:35:20.664Z,70.00
2018-09-11T04:37:49.819Z,70.10
2018-09-11T04:40:18.905Z,70.10
2018-09-11T04:42:48.033Z,70.60
2018-09-11T04:45:17.318Z,70.50
2018-09-11T04:47:46.449Z,70.30
2018-09-11T04:50:15.648Z,70.20
2018-09-11T04:52:44.748Z,70.10
2018-09-11T04:55:13.853Z,70.20
2018-09-11T04:57:42.917Z,70.20
2018-09-11T05:00:12.217Z,70.30
2018-09-11T05:02:41.254Z,70.20
2018-09-11T05:05:10.349Z,70.20
2018-09-11T05:07:39.747Z,70.20
2018-09-11T05:10:08.880Z,70.40
2018-09-11T05:12:38.116Z,70.20
2018-09-11T05:15:08.642Z,70.20
2018-09-11T05:17:37.944Z,70.30
2018-09-11T05:20:07.979Z,70.20
2018-09-11T05:22:37.355Z,70.30
2018-09-11T05:25:06.453Z,70.10
2018-09-11T05:27:35.716Z,70.20
2018-09-11T05:30:05.903Z,70.00
2018-09-11T05:32:35.735Z,70.10
2018-09-11T05:35:05.462Z,69.90
2018-09-11T05:37:37.050Z,69.90
2018-09-11T05:40:06.930Z,70.30
2018-09-11T05:42:36.977Z,69.60
2018-09-11T05:45:07.018Z,69.60
2018-09-11T05:47:36.683Z,69.60
2018-09-11T05:50:06.050Z,69.40
2018-09-11T05:52:35.419Z,69.40
2018-09-11T05:55:04.659Z,69.00
2018-09-11T05:57:33.901Z,69.10
2018-09-11T06:00:03.257Z,69.30
2018-09-11T06:02:32.700Z,69.20
2018-09-11T06:05:01.985Z,68.80
2018-09-11T06:07:31.610Z,68.70
2018-09-11T06:10:00.781Z,68.30
2018-09-11T06:12:29.837Z,68.00
2018-09-11T06:14:59.220Z,67.90
2018-09-11T06:17:28.490Z,67.80
2018-09-11T06:19:57.813Z,67.80
2018-09-11T06:22:26.990Z,67.40
2018-09-11T06:24:55.983Z,67.10
2018-09-11T06:27:25.299Z,66.80
2018-09-11T06:29:54.730Z,66.80
2018-09-11T06:32:23.951Z,66.30
2018-09-11T06:34:53.007Z,66.40
2018-09-11T06:37:22.346Z,66.00
2018-09-11T06:39:51.542Z,66.20
2018-09-11T06:42:20.651Z,66.10
2018-09-11T06:44:49.918Z,66.10
2018-09-11T06:47:19.162Z,66.20
2018-09-11T06:49:48.166Z,65.90
2018-09-11T06:52:17.486Z,65.90
2018-09-11T06:54:46.572Z,65.80
2018-09-11T06:57:15.680Z,65.90
2018-09-11T06:59:44.881Z,65.60
2018-09-11T07:02:14.069Z,65.20
2018-09-11T07:04:43.213Z,65.00
2018-09-11T07:07:12.307Z,64.70
2018-09-11T07:09:41.564Z,64.70
2018-09-11T07:12:10.833Z,64.50
2018-09-11T07:14:40.233Z,64.40
2018-09-11T07:17:09.402Z,64.10
2018-09-11T07:19:38.651Z,64.10
2018-09-11T07:22:07.951Z,64.20
2018-09-11T07:24:37.561Z,64.50
2018-09-11T07:27:06.693Z,64.40
2018-09-11T07:29:36.009Z,64.20
2018-09-11T07:32:05.127Z,64.30
2018-09-11T07:34:34.229Z,64.10
2018-09-11T07:37:03.510Z,63.60
2018-09-11T07:39:32.698Z,63.80
2018-09-11T07:42:01.958Z,63.10
2018-09-11T07:44:31.151Z,62.60
2018-09-11T07:47:00.252Z,62.80
2018-09-11T07:49:29.346Z,62.70
2018-09-11T07:51:58.598Z,62.70
2018-09-11T07:54:27.825Z,63.30
2018-09-11T07:56:57.049Z,62.50
2018-09-11T07:59:26.109Z,62.60
2018-09-11T08:01:55.113Z,62.50
2018-09-11T08:04:24.256Z,61.90
2018-09-11T08:06:53.430Z,61.90
2018-09-11T08:09:22.715Z,61.40
2018-09-11T08:11:51.889Z,61.10
2018-09-11T08:14:21.138Z,61.80
2018-09-11T08:16:50.425Z,60.80
2018-09-11T08:19:19.517Z,60.90
2018-09-11T08:21:48.826Z,60.40
2018-09-11T08:24:18.096Z,60.40
2018-09-11T08:26:47.206Z,59.90
2018-09-11T08:29:16.521Z,59.60
2018-09-11T08:31:45.482Z,59.00
2018-09-11T08:34:14.790Z,58.20
2018-09-11T08:36:44.046Z,56.80
2018-09-11T08:39:13.123Z,55.30
2018-09-11T08:41:42.276Z,54.60
2018-09-11T08:44:11.589Z,53.40
2018-09-11T08:46:40.855Z,51.90
2018-09-11T08:49:09.905Z,51.20
2018-09-11T08:51:39.226Z,50.40
2018-09-11T08:54:08.263Z,48.60
2018-09-11T08:56:37.578Z,48.00
2018-09-11T08:59:06.998Z,48.10
2018-09-11T09:01:36.133Z,47.00
2018-09-11T09:04:05.518Z,46.50
2018-09-11T09:06:34.763Z,45.80
2018-09-11T09:09:04.756Z,45.00
2018-09-11T09:11:33.954Z,44.40
2018-09-11T09:14:03.311Z,43.50
2018-09-11T09:16:32.534Z,43.70
2018-09-11T09:19:01.701Z,43.50
2018-09-11T09:21:30.832Z,42.30
2018-09-11T09:24:00.178Z,42.10
2018-09-11T09:26:29.374Z,42.10
2018-09-11T09:28:58.590Z,42.40
2018-09-11T09:31:27.851Z,42.90
2018-09-11T09:33:56.920Z,42.80
2018-09-11T09:36:26.293Z,40.70
2018-09-11T09:38:55.674Z,41.30
2018-09-11T09:41:24.941Z,40.90
2018-09-11T09:43:54.281Z,42.00
2018-09-11T09:46:23.616Z,41.00
2018-09-11T09:48:52.902Z,40.80
2018-09-11T09:51:22.766Z,39.10
2018-09-11T09:53:51.912Z,38.30
2018-09-11T09:56:21.010Z,38.00
2018-09-11T09:58:50.374Z,38.20
2018-09-11T10:01:24.526Z,37.80
2018-09-11T10:03:53.782Z,36.60
2018-09-11T10:06:23.081Z,35.80
2018-09-11T10:08:52.359Z,36.40
2018-09-11T10:11:21.514Z,36.90
2018-09-11T10:13:50.817Z,37.40
2018-09-11T10:16:19.916Z,37.30
2018-09-11T10:18:49.123Z,38.40
2018-09-11T10:21:18.411Z,38.70
2018-09-11T10:23:47.735Z,39.20
2018-09-11T10:26:16.922Z,39.10
2018-09-11T10:28:46.167Z,39.30
2018-09-11T10:31:15.248Z,39.70
2018-09-11T10:33:44.469Z,40.30
2018-09-11T10:36:13.663Z,40.00
2018-09-11T10:38:42.794Z,39.70
2018-09-11T10:41:11.776Z,39.90
2018-09-11T10:43:41.085Z,39.20
2018-09-11T10:46:10.288Z,39.10
2018-09-11T10:48:39.459Z,38.90
2018-09-11T10:51:08.760Z,38.90
2018-09-11T10:53:37.983Z,38.70
2018-09-11T10:56:07.257Z,37.80
2018-09-11T10:58:36.421Z,37.70
2018-09-11T11:01:05.481Z,38.20
2018-09-11T11:03:34.541Z,38.10
2018-09-11T11:06:03.856Z,38.30
2018-09-11T11:08:33.141Z,37.80
2018-09-11T11:11:02.334Z,37.20
2018-09-11T11:13:31.451Z,37.60
2018-09-11T11:16:00.542Z,37.00
2018-09-11T11:18:29.632Z,37.60
2018-09-11T11:20:58.881Z,36.40
2018-09-11T11:23:28.034Z,36.30
2018-09-11T11:25:57.275Z,35.70
2018-09-11T11:28:26.418Z,35.30
2018-09-11T11:30:55.519Z,35.30
2018-09-11T11:33:24.736Z,34.60
2018-09-11T11:35:54.064Z,34.10
2018-09-11T11:38:23.197Z,34.40
2018-09-11T11:40:52.360Z,34.40
2018-09-11T11:43:21.525Z,34.40
2018-09-11T11:45:51.779Z,34.20
2018-09-11T11:48:21.013Z,33.80
2018-09-11T11:50:49.927Z,33.00
2018-09-11T11:53:18.912Z,33.00
2018-09-11T11:55:47.931Z,32.40
2018-09-11T11:58:17.086Z,32.70
2018-09-11T12:00:46.215Z,32.70
2018-09-11T12:03:15.539Z,32.50
2018-09-11T12:05:44.621Z,33.20
2018-09-11T12:08:13.918Z,33.60
2018-09-11T12:10:43.089Z,34.20
2018-09-11T12:13:12.207Z,35.00
2018-09-11T12:15:41.453Z,36.00
2018-09-11T12:18:10.622Z,36.40
2018-09-11T12:20:39.799Z,35.90
2018-09-11T12:23:08.825Z,35.60
2018-09-11T12:25:38.112Z,35.40
2018-09-11T12:28:07.317Z,35.90
2018-09-11T12:30:36.531Z,35.00
2018-09-11T12:33:05.720Z,35.20
2018-09-11T12:35:34.791Z,35.30
2018-09-11T12:38:03.888Z,35.40
2018-09-11T12:40:33.158Z,36.40
2018-09-11T12:43:02.286Z,36.50
2018-09-11T12:45:31.494Z,36.00
2018-09-11T12:48:01.236Z,34.70
2018-09-11T12:50:29.881Z,34.70
2018-09-11T12:52:58.855Z,35.70
2018-09-11T12:55:27.941Z,36.20
2018-09-11T12:57:57.262Z,36.70
2018-09-11T13:00:26.294Z,37.10
2018-09-11T13:02:55.472Z,37.20
2018-09-11T13:05:24.495Z,37.10
2018-09-11T13:07:53.575Z,37.60
2018-09-11T13:10:22.821Z,37.30
2018-09-11T13:12:52.742Z,37.50
2018-09-11T13:15:22.050Z,38.00
2018-09-11T13:17:51.187Z,37.90
2018-09-11T13:20:20.465Z,39.00
2018-09-11T13:22:49.645Z,38.10
2018-09-11T13:25:18.894Z,39.10
2018-09-11T13:27:48.021Z,39.70
2018-09-11T13:30:17.051Z,40.00
2018-09-11T13:32:46.198Z,41.00
2018-09-11T13:35:15.496Z,40.20
2018-09-11T13:37:44.648Z,40.30
2018-09-11T13:40:13.746Z,40.40
2018-09-11T13:42:43.061Z,41.00
2018-09-11T13:45:12.302Z,41.70
2018-09-11T13:47:41.518Z,41.90
2018-09-11T13:50:10.823Z,42.40
2018-09-11T13:52:40.355Z,42.70
2018-09-11T13:55:09.486Z,43.20
2018-09-11T13:57:38.757Z,43.20
2018-09-11T14:00:07.961Z,43.10
2018-09-11T14:02:37.203Z,42.80
2018-09-11T14:05:06.295Z,43.40
2018-09-11T14:07:35.421Z,43.60
2018-09-11T14:10:04.783Z,43.80
2018-09-11T14:12:34.140Z,44.20
2018-09-11T14:15:03.265Z,44.40
2018-09-11T14:17:32.440Z,44.80
2018-09-11T14:20:01.636Z,45.20
2018-09-11T14:22:30.723Z,45.70
2018-09-11T14:25:00.479Z,45.80
2018-09-11T14:27:29.624Z,45.30
2018-09-11T14:29:59.016Z,45.60
2018-09-11T14:32:28.291Z,46.20
2018-09-11T14:34:57.510Z,46.50
2018-09-11T14:37:26.678Z,46.80
2018-09-11T14:39:55.906Z,47.00
2018-09-11T14:42:25.212Z,47.20
2018-09-11T14:44:54.207Z,47.40
2018-09-11T14:47:23.347Z,47.50
2018-09-11T14:49:52.706Z,47.70
2018-09-11T14:52:21.784Z,48.10
2018-09-11T14:54:50.908Z,48.20
2018-09-11T14:57:20.344Z,48.40
2018-09-11T14:59:49.670Z,48.50
2018-09-11T15:02:18.980Z,48.60
2018-09-11T15:04:48.283Z,48.80
2018-09-11T15:07:17.386Z,48.90
2018-09-11T15:09:46.426Z,49.20
2018-09-11T15:12:15.567Z,49.40
2018-09-11T15:14:44.732Z,49.70
2018-09-11T15:17:13.973Z,49.60
2018-09-11T15:19:43.123Z,49.70
2018-09-11T15:22:12.421Z,49.70
2018-09-11T15:24:41.687Z,50.00
2018-09-11T15:27:10.901Z,49.90
2018-09-11T15:29:40.261Z,50.10
2018-09-11T15:32:09.354Z,50.10
2018-09-11T15:34:38.624Z,50.20
2018-09-11T15:37:07.824Z,50.40
2018-09-11T15:39:37.087Z,50.60
2018-09-11T15:42:06.470Z,50.80
2018-09-11T15:44:35.546Z,50.80
2018-09-11T15:47:04.799Z,51.20
2018-09-11T15:49:33.751Z,51.10
2018-09-11T15:52:02.845Z,51.40
2018-09-11T15:54:31.886Z,51.40
2018-09-11T15:57:01.121Z,51.40
2018-09-11T15:59:30.433Z,51.60
2018-09-11T16:01:59.466Z,51.70
2018-09-11T16:04:28.603Z,51.70
2018-09-11T16:06:57.678Z,51.70
2018-09-11T16:09:26.788Z,51.70
2018-09-11T16:11:55.928Z,51.70
2018-09-11T16:14:26.034Z,51.70
2018-09-11T16:16:55.304Z,51.70
2018-09-11T16:19:24.624Z,52.20
2018-09-11T16:21:53.831Z,51.60
2018-09-11T16:24:22.965Z,51.90
2018-09-11T16:26:52.084Z,52.00
2018-09-11T16:29:21.319Z,52.10
2018-09-11T16:31:50.418Z,52.50
2018-09-11T16:34:19.494Z,52.60
2018-09-11T16:36:48.688Z,52.80
2018-09-11T16:39:17.908Z,53.00
2018-09-11T16:41:47.230Z,52.90
2018-09-11T16:44:16.445Z,53.10
2018-09-11T16:46:45.666Z,53.20
2018-09-11T16:49:14.719Z,53.30
2018-09-11T16:51:43.957Z,53.50
2018-09-11T16:54:13.195Z,53.60
2018-09-11T16:56:42.471Z,53.80
2018-09-11T16:59:11.642Z,53.90
2018-09-11T17:01:40.842Z,54.00
2018-09-11T17:04:09.987Z,54.20
2018-09-11T17:06:39.224Z,54.30
2018-09-11T17:09:09.321Z,54.40
2018-09-11T17:11:38.385Z,54.40
2018-09-11T17:14:07.690Z,54.50
2018-09-11T17:16:36.812Z,54.60
2018-09-11T17:19:05.877Z,54.30
2018-09-11T17:21:35.091Z,54.50
2018-09-11T17:24:04.335Z,54.80
2018-09-11T17:26:33.419Z,55.00
2018-09-11T17:29:02.688Z,55.10
2018-09-11T17:31:32.021Z,55.30
2018-09-11T17:34:01.058Z,55.30
2018-09-11T17:36:30.082Z,55.50
2018-09-11T17:38:59.183Z,55.70
2018-09-11T17:41:28.351Z,55.70
2018-09-11T17:43:57.429Z,55.90
2018-09-11T17:46:27.516Z,55.90
2018-09-11T17:48:56.863Z,55.90
2018-09-11T17:51:25.903Z,55.80
2018-09-11T17:53:55.214Z,56.00
2018-09-11T17:56:24.239Z,55.90
2018-09-11T17:58:53.418Z,56.00
2018-09-11T18:01:22.676Z,56.20
2018-09-11T18:03:51.847Z,56.10
2018-09-11T18:06:21.031Z,56.20
2018-09-11T18:08:50.246Z,56.20
2018-09-11T18:11:19.562Z,56.50
2018-09-11T18:13:48.652Z,56.50
2018-09-11T18:16:17.760Z,56.50
2018-09-11T18:18:46.880Z,56.60
2018-09-11T18:21:16.243Z,56.70
2018-09-11T18:23:45.497Z,56.80
2018-09-11T18:26:14.786Z,57.00
2018-09-11T18:28:44.041Z,57.00
2018-09-11T18:31:13.187Z,57.30
2018-09-11T18:33:42.206Z,57.40
2018-09-11T18:36:11.431Z,57.50
2018-09-11T18:38:40.546Z,57.70
2018-09-11T18:41:11.532Z,57.70
2018-09-11T18:43:40.778Z,57.70
2018-09-11T18:46:10.258Z,57.70
2018-09-11T18:48:39.525Z,57.80
2018-09-11T18:51:08.717Z,58.00
2018-09-11T18:53:37.805Z,58.10
2018-09-11T18:56:06.841Z,58.20
2018-09-11T18:58:35.878Z,58.10
2018-09-11T19:01:05.052Z,58.20
2018-09-11T19:03:34.365Z,58.30
2018-09-11T19:06:04.141Z,58.20
2018-09-11T19:08:33.435Z,58.40
2018-09-11T19:11:02.796Z,58.60
2018-09-11T19:13:32.057Z,58.70
2018-09-11T19:16:01.381Z,58.90
2018-09-11T19:18:30.655Z,59.10
2018-09-11T19:20:59.740Z,59.10
2018-09-11T19:23:29.898Z,59.30
2018-09-11T19:25:59.009Z,59.50
2018-09-11T19:28:28.095Z,59.70
2018-09-11T19:30:57.366Z,59.70
2018-09-11T19:33:27.559Z,59.90
2018-09-11T19:35:57.285Z,60.20
2018-09-11T19:38:26.859Z,60.50
2018-09-11T19:40:56.819Z,60.70
2018-09-11T19:43:26.013Z,60.80
2018-09-11T19:45:55.134Z,61.00
2018-09-11T19:48:25.318Z,61.20
2018-09-11T19:50:54.655Z,61.30
2018-09-11T19:53:24.450Z,61.40
2018-09-11T19:55:53.577Z,61.50
2018-09-11T19:58:22.917Z,61.80
2018-09-11T20:00:52.049Z,61.90
2018-09-11T20:03:21.379Z,62.20
2018-09-11T20:05:50.577Z,62.30
2018-09-11T20:08:19.742Z,62.50
2018-09-11T20:10:48.865Z,62.70
2018-09-11T20:13:18.135Z,63.00
2018-09-11T20:15:47.339Z,62.90
2018-09-11T20:18:17.088Z,62.90
2018-09-11T20:20:46.260Z,63.10
2018-09-11T20:23:15.418Z,63.30
2018-09-11T20:25:44.583Z,63.30
2018-09-11T20:28:13.809Z,63.40
2018-09-11T20:30:43.071Z,63.40
2018-09-11T20:33:12.382Z,64.00
2018-09-11T20:35:41.519Z,63.80
2018-09-11T20:38:10.745Z,64.00
2018-09-11T20:40:39.907Z,64.10
2018-09-11T20:43:09.145Z,64.30
2018-09-11T20:45:38.276Z,64.60
2018-09-11T20:48:07.338Z,64.70
2018-09-11T20:50:36.488Z,64.80
2018-09-11T20:53:05.806Z,65.10
2018-09-11T20:55:35.071Z,65.30
2018-09-11T20:58:04.402Z,65.50
2018-09-11T21:00:33.896Z,65.50
2018-09-11T21:03:03.292Z,65.80
2018-09-11T21:05:32.546Z,65.90
2018-09-11T21:08:01.807Z,66.10
2018-09-11T21:10:31.093Z,66.30
2018-09-11T21:13:00.319Z,66.40
2018-09-11T21:15:29.701Z,66.70
2018-09-11T21:17:58.883Z,66.80
2018-09-11T21:20:30.239Z,66.90
2018-09-11T21:23:01.655Z,67.20
2018-09-11T21:25:31.867Z,67.20
2018-09-11T21:28:03.430Z,67.50
2018-09-11T21:30:35.267Z,67.80
2018-09-11T21:33:06.088Z,68.20
2018-09-11T21:35:37.356Z,68.70
2018-09-11T21:38:09.794Z,69.70
2018-09-11T21:40:41.066Z,71.20
2018-09-11T21:43:12.545Z,71.70
2018-09-11T21:45:42.745Z,71.40
2018-09-11T21:48:14.413Z,71.50
2018-09-11T21:50:45.946Z,71.50
2018-09-11T21:53:18.088Z,71.70
2018-09-11T21:55:47.784Z,71.50
2018-09-11T21:58:20.030Z,71.90
2018-09-11T22:00:55.084Z,75.50
2018-09-11T22:03:29.089Z,74.10
2018-09-11T22:06:01.482Z,73.30
2018-09-11T22:08:33.173Z,73.50
2018-09-11T22:11:02.349Z,74.30
2018-09-11T22:13:31.532Z,74.80
2018-09-11T22:16:01.250Z,74.50
2018-09-11T22:18:30.708Z,75.90
2018-09-11T22:21:00.010Z,74.80
2018-09-11T22:23:29.217Z,75.10
2018-09-11T22:25:59.188Z,75.70
2018-09-11T22:28:28.225Z,77.10
2018-09-11T22:30:57.411Z,77.30
2018-09-11T22:33:26.618Z,79.60
2018-09-11T22:35:55.773Z,79.20
2018-09-11T22:38:25.031Z,77.40
2018-09-11T22:40:54.083Z,77.90
2018-09-11T22:43:24.629Z,77.50
2018-09-11T22:45:54.075Z,78.00
2018-09-11T22:48:23.102Z,78.10
2018-09-11T22:50:52.437Z,77.80
2018-09-11T22:53:21.501Z,77.80
2018-09-11T22:55:50.626Z,77.80
2018-09-11T22:58:19.882Z,77.80
2018-09-11T23:00:49.018Z,78.40
2018-09-11T23:03:18.150Z,78.40
2018-09-11T23:05:47.366Z,78.30
2018-09-11T23:08:16.471Z,78.80
2018-09-11T23:10:45.845Z,80.80
2018-09-11T23:13:15.084Z,79.90
2018-09-11T23:15:44.363Z,79.90
2018-09-11T23:18:13.558Z,80.40
2018-09-11T23:20:43.125Z,81.00
2018-09-11T23:23:12.208Z,81.10
2018-09-11T23:25:41.673Z,81.50
2018-09-11T23:28:10.983Z,81.70
2018-09-11T23:30:40.293Z,81.90
2018-09-11T23:33:09.518Z,82.10
2018-09-11T23:35:38.790Z,82.20
2018-09-11T23:38:08.103Z,82.20
2018-09-11T23:40:37.310Z,82.40
2018-09-11T23:43:06.557Z,82.40
2018-09-11T23:45:35.727Z,82.50
2018-09-11T23:48:04.961Z,82.40
2018-09-11T23:50:34.032Z,82.50
2018-09-11T23:53:04.557Z,82.50
2018-09-11T23:55:33.741Z,82.80
2018-09-11T23:58:02.878Z,83.00
